Portada
METAR-TAF:

METAR-TAF

Aeroports :

Upington, Sud-àfrica

latitud: 28-24S, longitud: 021-16E, altitud: 839 m

Observació

L'informe es va fer fa 1 hora i 6 minuts, a les 01:00 UTC
Vent 3 kt del Est
Temperatura 8°C
Humitat 66%
Pressió 1020 hPa
Visibilitat 10 km o més
sense núvols per sota de 1500 mi sense presència de cumulonimbus.

METAR: FAUP 180100Z 09003KT CAVOK 08/02 Q1020 NOSIG

Hora: 04:06 (02:06 UTC)

Pronòstic

L'informe es va fer fa 4 hores i 6 minuts, a les 22:00 UTC
Pronòstic vàlid del 18 a les 00 UTC al 18 a les 24 UTC
Vent 3 kt amb direcció variable
Visibilitat 10 km o més
sense núvols per sota de 1500 mi sense presència de cumulonimbus.
Probabilitat 30% :
Temporalment
l' 18 a les 01 UTC al 18 a les 05 UTC
Visibilitat: 4000 m
boirina,

TAF: FAUP 172200Z 1800/1824 VRB03KT CAVOK TX20/1813Z TN05/1804Z PROB30 TEMPO 1801/1805 4000 BR NSC

Observacions i pronòstics meteorològics de més de 4000 aeroports (METAR i TAF).

Les estacions disponibles són els punts grocs i vermells al mapa.

Posi el ratolí al punt desitjat per veure el nom de l'estació.

Feu clic per veure les observacions i els pronòstics meteorològics.

Per canviar el mapa: feu clic els botons verds amb una creu de color negre per apropar; al botó verd amb un guió per allunyar la imatge; o en les fletxes verdes per a mapes adjacents.


METAR-TAF: